sensor_id;sensor_type;location;lat;lon;timestamp;pressure;altitude;pressure_sealevel;temperature;humidity
7930;BME280;4010;42.698;23.124;2022-10-31T00:01:24;118349.16;;;-140.64;88.04
7930;BME280;4010;42.698;23.124;2022-10-31T00:03:52;118349.16;;;-140.64;88.35
7930;BME280;4010;42.698;23.124;2022-10-31T00:06:19;118349.16;;;-140.64;88.77
7930;BME280;4010;42.698;23.124;2022-10-31T00:08:46;118349.16;;;-140.64;89.31
7930;BME280;4010;42.698;23.124;2022-10-31T00:11:13;118349.16;;;-140.64;90.25
7930;BME280;4010;42.698;23.124;2022-10-31T00:13:40;118349.16;;;-140.64;91.14
7930;BME280;4010;42.698;23.124;2022-10-31T00:16:14;118349.16;;;-140.64;91.82
7930;BME280;4010;42.698;23.124;2022-10-31T00:18:41;118349.16;;;-140.64;92.66
7930;BME280;4010;42.698;23.124;2022-10-31T00:21:08;118349.16;;;-140.64;93.32
7930;BME280;4010;42.698;23.124;2022-10-31T00:23:34;118349.16;;;-140.64;93.75
7930;BME280;4010;42.698;23.124;2022-10-31T00:26:02;118349.16;;;-140.64;94.11
7930;BME280;4010;42.698;23.124;2022-10-31T00:28:29;118349.16;;;-140.64;94.89
7930;BME280;4010;42.698;23.124;2022-10-31T00:30:58;118349.16;;;-140.64;95.89
7930;BME280;4010;42.698;23.124;2022-10-31T00:33:27;118349.16;;;-140.64;96.11
7930;BME280;4010;42.698;23.124;2022-10-31T00:35:54;118349.16;;;-140.64;96.19
7930;BME280;4010;42.698;23.124;2022-10-31T00:38:21;118349.16;;;-140.64;96.80
7930;BME280;4010;42.698;23.124;2022-10-31T00:40:47;118349.16;;;-140.64;97.87
7930;BME280;4010;42.698;23.124;2022-10-31T00:43:14;118349.16;;;-140.64;98.51
7930;BME280;4010;42.698;23.124;2022-10-31T00:45:41;118349.16;;;-140.64;99.05
7930;BME280;4010;42.698;23.124;2022-10-31T00:48:08;118349.16;;;-140.64;99.50
7930;BME280;4010;42.698;23.124;2022-10-31T00:50:37;118349.16;;;-140.64;99.79
7930;BME280;4010;42.698;23.124;2022-10-31T00:53:04;118349.16;;;-140.64;100.00
7930;BME280;4010;42.698;23.124;2022-10-31T00:55:30;118349.16;;;-140.64;100.00
7930;BME280;4010;42.698;23.124;2022-10-31T00:57:57;118349.16;;;-140.64;100.00
7930;BME280;4010;42.698;23.124;2022-10-31T01:00:24;118349.16;;;-140.64;100.00
7930;BME280;4010;42.698;23.124;2022-10-31T01:02:51;118349.16;;;-140.64;100.00
7930;BME280;4010;42.698;23.124;2022-10-31T01:05:17;118349.16;;;-140.64;100.00
7930;BME280;4010;42.698;23.124;2022-10-31T01:07:46;118349.16;;;-140.64;100.00
7930;BME280;4010;42.698;23.124;2022-10-31T01:10:13;118349.16;;;-140.64;100.00
7930;BME280;4010;42.698;23.124;2022-10-31T01:12:41;118349.16;;;-140.64;100.00
7930;BME280;4010;42.698;23.124;2022-10-31T01:15:10;118349.16;;;-140.64;100.00
7930;BME280;4010;42.698;23.124;2022-10-31T01:17:37;118349.16;;;-140.64;100.00
7930;BME280;4010;42.698;23.124;2022-10-31T01:20:05;118349.16;;;-140.64;100.00
7930;BME280;4010;42.698;23.124;2022-10-31T01:22:32;118349.16;;;-140.64;100.00
7930;BME280;4010;42.698;23.124;2022-10-31T01:25:00;118349.16;;;-140.64;100.00
7930;BME280;4010;42.698;23.124;2022-10-31T01:27:27;118349.16;;;-140.64;100.00
7930;BME280;4010;42.698;23.124;2022-10-31T01:29:54;118349.16;;;-140.64;100.00
7930;BME280;4010;42.698;23.124;2022-10-31T01:32:21;118349.16;;;-140.64;100.00
7930;BME280;4010;42.698;23.124;2022-10-31T01:34:48;118349.16;;;-140.64;100.00
7930;BME280;4010;42.698;23.124;2022-10-31T01:37:14;118349.16;;;-140.64;100.00
7930;BME280;4010;42.698;23.124;2022-10-31T01:39:41;118349.16;;;-140.64;100.00
7930;BME280;4010;42.698;23.124;2022-10-31T01:42:15;118349.16;;;-140.64;100.00
7930;BME280;4010;42.698;23.124;2022-10-31T01:44:57;118349.16;;;-140.64;100.00
7930;BME280;4010;42.698;23.124;2022-10-31T01:47:38;118349.16;;;-140.64;100.00
7930;BME280;4010;42.698;23.124;2022-10-31T01:50:11;118349.16;;;-140.64;100.00
7930;BME280;4010;42.698;23.124;2022-10-31T01:52:40;118349.16;;;-140.64;100.00
7930;BME280;4010;42.698;23.124;2022-10-31T01:55:12;118349.16;;;-140.64;100.00
7930;BME280;4010;42.698;23.124;2022-10-31T01:57:44;118349.16;;;-140.64;100.00
7930;BME280;4010;42.698;23.124;2022-10-31T02:00:13;118349.16;;;-140.64;100.00
7930;BME280;4010;42.698;23.124;2022-10-31T02:02:40;118349.16;;;-140.64;100.00
7930;BME280;4010;42.698;23.124;2022-10-31T02:05:09;118349.16;;;-140.64;100.00
7930;BME280;4010;42.698;23.124;2022-10-31T02:07:41;118349.16;;;-140.64;100.00
7930;BME280;4010;42.698;23.124;2022-10-31T02:10:09;118349.16;;;-140.64;100.00
7930;BME280;4010;42.698;23.124;2022-10-31T02:12:37;118349.16;;;-140.64;100.00
7930;BME280;4010;42.698;23.124;2022-10-31T02:15:06;118349.16;;;-140.64;100.00
7930;BME280;4010;42.698;23.124;2022-10-31T02:17:33;118349.16;;;-140.64;100.00
7930;BME280;4010;42.698;23.124;2022-10-31T02:20:09;118349.16;;;-140.64;100.00
7930;BME280;4010;42.698;23.124;2022-10-31T02:22:45;118349.16;;;-140.64;100.00
7930;BME280;4010;42.698;23.124;2022-10-31T02:25:30;118349.16;;;-140.64;100.00
7930;BME280;4010;42.698;23.124;2022-10-31T02:28:16;118349.16;;;-140.64;100.00
7930;BME280;4010;42.698;23.124;2022-10-31T02:31:12;118349.16;;;-140.64;100.00
7930;BME280;4010;42.698;23.124;2022-10-31T02:33:46;118349.16;;;-140.64;100.00
7930;BME280;4010;42.698;23.124;2022-10-31T02:36:19;118349.16;;;-140.64;100.00
7930;BME280;4010;42.698;23.124;2022-10-31T02:38:51;118349.16;;;-140.64;100.00
7930;BME280;4010;42.698;23.124;2022-10-31T02:41:28;118349.16;;;-140.64;100.00
7930;BME280;4010;42.698;23.124;2022-10-31T02:44:06;118349.16;;;-140.64;100.00
7930;BME280;4010;42.698;23.124;2022-10-31T02:46:40;118349.16;;;-140.64;100.00
7930;BME280;4010;42.698;23.124;2022-10-31T02:49:17;118349.16;;;-140.64;100.00
7930;BME280;4010;42.698;23.124;2022-10-31T02:51:45;118349.16;;;-140.64;100.00
7930;BME280;4010;42.698;23.124;2022-10-31T02:54:19;118349.16;;;-140.64;100.00
7930;BME280;4010;42.698;23.124;2022-10-31T02:56:49;118349.16;;;-140.64;100.00
7930;BME280;4010;42.698;23.124;2022-10-31T02:59:17;118349.16;;;-140.64;100.00
7930;BME280;4010;42.698;23.124;2022-10-31T03:02:09;118349.16;;;-140.64;100.00
7930;BME280;4010;42.698;23.124;2022-10-31T03:04:47;118349.16;;;-140.64;100.00
7930;BME280;4010;42.698;23.124;2022-10-31T03:07:21;118349.16;;;-140.64;100.00
7930;BME280;4010;42.698;23.124;2022-10-31T03:09:58;118349.16;;;-140.64;100.00
7930;BME280;4010;42.698;23.124;2022-10-31T03:12:29;118349.16;;;-140.64;100.00
7930;BME280;4010;42.698;23.124;2022-10-31T03:15:04;118349.16;;;-140.64;100.00
7930;BME280;4010;42.698;23.124;2022-10-31T03:17:39;118349.16;;;-140.64;100.00
7930;BME280;4010;42.698;23.124;2022-10-31T03:20:10;118349.16;;;-140.64;100.00
7930;BME280;4010;42.698;23.124;2022-10-31T03:22:39;118349.16;;;-140.64;100.00
7930;BME280;4010;42.698;23.124;2022-10-31T03:25:09;118349.16;;;-140.64;100.00
7930;BME280;4010;42.698;23.124;2022-10-31T03:27:37;118349.16;;;-140.64;100.00
7930;BME280;4010;42.698;23.124;2022-10-31T03:30:07;118349.16;;;-140.64;100.00
7930;BME280;4010;42.698;23.124;2022-10-31T03:32:38;118349.16;;;-140.64;100.00
7930;BME280;4010;42.698;23.124;2022-10-31T03:35:08;118349.16;;;-140.64;100.00
7930;BME280;4010;42.698;23.124;2022-10-31T03:37:37;118349.16;;;-140.64;100.00
7930;BME280;4010;42.698;23.124;2022-10-31T03:40:06;118349.16;;;-140.64;100.00
7930;BME280;4010;42.698;23.124;2022-10-31T03:42:38;118349.16;;;-140.64;100.00
7930;BME280;4010;42.698;23.124;2022-10-31T03:45:10;118349.16;;;-140.64;100.00
7930;BME280;4010;42.698;23.124;2022-10-31T03:47:40;118349.16;;;-140.64;100.00
7930;BME280;4010;42.698;23.124;2022-10-31T03:50:10;118349.16;;;-140.64;100.00
7930;BME280;4010;42.698;23.124;2022-10-31T03:52:42;118349.16;;;-140.64;100.00
7930;BME280;4010;42.698;23.124;2022-10-31T03:55:16;118349.16;;;-140.64;100.00
7930;BME280;4010;42.698;23.124;2022-10-31T03:57:46;118349.16;;;-140.64;100.00
7930;BME280;4010;42.698;23.124;2022-10-31T04:00:16;118349.16;;;-140.64;100.00
7930;BME280;4010;42.698;23.124;2022-10-31T04:02:49;118349.16;;;-140.64;100.00
7930;BME280;4010;42.698;23.124;2022-10-31T04:05:18;118349.16;;;-140.64;100.00
7930;BME280;4010;42.698;23.124;2022-10-31T04:07:47;118349.16;;;-140.64;100.00
7930;BME280;4010;42.698;23.124;2022-10-31T04:10:17;118349.16;;;-140.64;100.00
7930;BME280;4010;42.698;23.124;2022-10-31T04:12:48;118349.16;;;-140.64;100.00
7930;BME280;4010;42.698;23.124;2022-10-31T04:15:17;118349.16;;;-140.64;100.00
7930;BME280;4010;42.698;23.124;2022-10-31T04:17:47;118349.16;;;-140.64;100.00
7930;BME280;4010;42.698;23.124;2022-10-31T04:20:17;118349.16;;;-140.64;100.00
7930;BME280;4010;42.698;23.124;2022-10-31T04:22:44;118349.16;;;-140.64;100.00
7930;BME280;4010;42.698;23.124;2022-10-31T04:25:11;118349.16;;;-140.64;100.00
7930;BME280;4010;42.698;23.124;2022-10-31T04:27:37;118349.16;;;-140.64;100.00
7930;BME280;4010;42.698;23.124;2022-10-31T04:30:05;118349.16;;;-140.64;100.00
7930;BME280;4010;42.698;23.124;2022-10-31T04:32:32;118349.16;;;-140.64;100.00
7930;BME280;4010;42.698;23.124;2022-10-31T04:35:00;118349.16;;;-140.64;100.00
7930;BME280;4010;42.698;23.124;2022-10-31T04:37:27;118349.16;;;-140.64;100.00
7930;BME280;4010;42.698;23.124;2022-10-31T04:39:53;118349.16;;;-140.64;100.00
7930;BME280;4010;42.698;23.124;2022-10-31T04:42:20;118349.16;;;-140.64;100.00
7930;BME280;4010;42.698;23.124;2022-10-31T04:44:47;118349.16;;;-140.64;100.00
7930;BME280;4010;42.698;23.124;2022-10-31T04:47:13;118349.16;;;-140.64;100.00
7930;BME280;4010;42.698;23.124;2022-10-31T04:49:40;118349.16;;;-140.64;100.00
7930;BME280;4010;42.698;23.124;2022-10-31T04:52:08;118349.16;;;-140.64;100.00
7930;BME280;4010;42.698;23.124;2022-10-31T04:54:35;118349.16;;;-140.64;100.00
7930;BME280;4010;42.698;23.124;2022-10-31T04:57:01;118349.16;;;-140.64;100.00
7930;BME280;4010;42.698;23.124;2022-10-31T04:59:28;118349.16;;;-140.64;100.00
7930;BME280;4010;42.698;23.124;2022-10-31T05:01:55;118349.16;;;-140.64;100.00
7930;BME280;4010;42.698;23.124;2022-10-31T05:04:22;118349.16;;;-140.64;100.00
7930;BME280;4010;42.698;23.124;2022-10-31T05:06:48;118349.16;;;-140.64;100.00
7930;BME280;4010;42.698;23.124;2022-10-31T05:09:16;118349.16;;;-140.64;100.00
7930;BME280;4010;42.698;23.124;2022-10-31T05:11:43;118349.16;;;-140.64;100.00
7930;BME280;4010;42.698;23.124;2022-10-31T05:14:10;118349.16;;;-140.64;100.00
7930;BME280;4010;42.698;23.124;2022-10-31T05:16:36;118349.16;;;-140.64;100.00
7930;BME280;4010;42.698;23.124;2022-10-31T05:19:03;118349.16;;;-140.64;100.00
7930;BME280;4010;42.698;23.124;2022-10-31T05:21:30;118349.16;;;-140.64;100.00
7930;BME280;4010;42.698;23.124;2022-10-31T05:23:56;118349.16;;;-140.64;100.00
7930;BME280;4010;42.698;23.124;2022-10-31T05:26:24;118349.16;;;-140.64;100.00
7930;BME280;4010;42.698;23.124;2022-10-31T05:28:51;118349.16;;;-140.64;100.00
7930;BME280;4010;42.698;23.124;2022-10-31T05:31:18;118349.16;;;-140.64;100.00
7930;BME280;4010;42.698;23.124;2022-10-31T05:33:45;118349.16;;;-140.64;100.00
7930;BME280;4010;42.698;23.124;2022-10-31T05:36:11;118349.16;;;-140.64;100.00
7930;BME280;4010;42.698;23.124;2022-10-31T05:38:38;118349.16;;;-140.64;100.00
7930;BME280;4010;42.698;23.124;2022-10-31T05:41:05;118349.16;;;-140.64;100.00
7930;BME280;4010;42.698;23.124;2022-10-31T05:43:33;118349.16;;;-140.64;100.00
7930;BME280;4010;42.698;23.124;2022-10-31T05:45:59;118349.16;;;-140.64;100.00
7930;BME280;4010;42.698;23.124;2022-10-31T05:48:26;118349.16;;;-140.64;100.00
7930;BME280;4010;42.698;23.124;2022-10-31T05:50:53;118349.16;;;-140.64;100.00
7930;BME280;4010;42.698;23.124;2022-10-31T05:53:19;118349.16;;;-140.64;100.00
7930;BME280;4010;42.698;23.124;2022-10-31T05:55:46;118349.16;;;-140.64;100.00
7930;BME280;4010;42.698;23.124;2022-10-31T05:58:13;118349.16;;;-140.64;100.00
7930;BME280;4010;42.698;23.124;2022-10-31T06:00:41;118349.16;;;-140.64;100.00
7930;BME280;4010;42.698;23.124;2022-10-31T06:03:08;118349.16;;;-140.64;100.00
7930;BME280;4010;42.698;23.124;2022-10-31T06:05:35;118349.16;;;-140.64;100.00
7930;BME280;4010;42.698;23.124;2022-10-31T06:08:02;118349.16;;;-140.64;100.00
7930;BME280;4010;42.698;23.124;2022-10-31T06:10:29;118349.16;;;-140.64;100.00
7930;BME280;4010;42.698;23.124;2022-10-31T06:12:55;118349.16;;;-140.64;100.00
7930;BME280;4010;42.698;23.124;2022-10-31T06:15:22;118349.16;;;-140.64;100.00
7930;BME280;4010;42.698;23.124;2022-10-31T06:17:59;118349.16;;;-140.64;100.00
7930;BME280;4010;42.698;23.124;2022-10-31T06:20:26;118349.16;;;-140.64;100.00
7930;BME280;4010;42.698;23.124;2022-10-31T06:22:52;118349.16;;;-140.64;100.00
7930;BME280;4010;42.698;23.124;2022-10-31T06:25:19;118349.16;;;-140.64;100.00
7930;BME280;4010;42.698;23.124;2022-10-31T06:27:46;118349.16;;;-140.64;100.00
7930;BME280;4010;42.698;23.124;2022-10-31T06:30:13;118349.16;;;-140.64;100.00
7930;BME280;4010;42.698;23.124;2022-10-31T06:32:40;118349.16;;;-140.64;100.00
7930;BME280;4010;42.698;23.124;2022-10-31T06:35:08;118349.16;;;-140.64;100.00
7930;BME280;4010;42.698;23.124;2022-10-31T06:37:35;118349.16;;;-140.64;100.00
7930;BME280;4010;42.698;23.124;2022-10-31T06:40:02;118349.16;;;-140.64;100.00
7930;BME280;4010;42.698;23.124;2022-10-31T06:42:29;118349.16;;;-140.64;100.00
7930;BME280;4010;42.698;23.124;2022-10-31T06:44:56;118349.16;;;-140.64;100.00
7930;BME280;4010;42.698;23.124;2022-10-31T06:47:22;118349.16;;;-140.64;98.21
7930;BME280;4010;42.698;23.124;2022-10-31T06:49:49;118349.16;;;-140.64;94.49
7930;BME280;4010;42.698;23.124;2022-10-31T06:52:17;118349.16;;;-140.64;95.63
7930;BME280;4010;42.698;23.124;2022-10-31T06:54:44;118349.16;;;-140.64;94.77
7930;BME280;4010;42.698;23.124;2022-10-31T06:57:10;118349.16;;;-140.64;94.04
7930;BME280;4010;42.698;23.124;2022-10-31T06:59:37;118349.16;;;-140.64;93.52
7930;BME280;4010;42.698;23.124;2022-10-31T07:02:04;118349.16;;;-140.64;94.87
7930;BME280;4010;42.698;23.124;2022-10-31T07:04:31;118349.16;;;-140.64;92.31
7930;BME280;4010;42.698;23.124;2022-10-31T07:06:58;118349.16;;;-140.64;92.26
7930;BME280;4010;42.698;23.124;2022-10-31T07:09:26;118349.16;;;-140.64;90.35
7930;BME280;4010;42.698;23.124;2022-10-31T07:11:53;118349.16;;;-140.64;89.54
7930;BME280;4010;42.698;23.124;2022-10-31T07:14:19;118349.16;;;-140.64;88.96
7930;BME280;4010;42.698;23.124;2022-10-31T07:16:48;118349.16;;;-140.64;87.91
7930;BME280;4010;42.698;23.124;2022-10-31T07:19:15;118349.16;;;-140.64;88.27
7930;BME280;4010;42.698;23.124;2022-10-31T07:21:42;118349.16;;;-140.64;87.98
7930;BME280;4010;42.698;23.124;2022-10-31T07:24:08;118349.16;;;-140.64;86.57
7930;BME280;4010;42.698;23.124;2022-10-31T07:26:36;118349.16;;;-140.64;88.70
7930;BME280;4010;42.698;23.124;2022-10-31T07:29:03;118349.16;;;-140.64;86.99
7930;BME280;4010;42.698;23.124;2022-10-31T07:31:30;118349.16;;;-140.64;85.58
7930;BME280;4010;42.698;23.124;2022-10-31T07:33:57;118349.16;;;-140.64;86.66
7930;BME280;4010;42.698;23.124;2022-10-31T07:36:23;118349.16;;;-140.64;84.46
7930;BME280;4010;42.698;23.124;2022-10-31T07:38:50;118349.16;;;-140.64;83.16
7930;BME280;4010;42.698;23.124;2022-10-31T07:41:17;118349.16;;;-140.64;85.28
7930;BME280;4010;42.698;23.124;2022-10-31T07:43:45;118349.16;;;-140.64;82.58
7930;BME280;4010;42.698;23.124;2022-10-31T07:46:12;118349.16;;;-140.64;82.11
7930;BME280;4010;42.698;23.124;2022-10-31T07:48:39;118349.16;;;-140.64;82.19
7930;BME280;4010;42.698;23.124;2022-10-31T07:51:06;118349.16;;;-140.64;79.09
7930;BME280;4010;42.698;23.124;2022-10-31T07:53:33;118349.16;;;-140.64;77.52
7930;BME280;4010;42.698;23.124;2022-10-31T07:56:00;118349.16;;;-140.64;74.83
7930;BME280;4010;42.698;23.124;2022-10-31T07:58:26;118349.16;;;-140.64;75.17
7930;BME280;4010;42.698;23.124;2022-10-31T08:00:54;118349.16;;;-140.64;75.27
7930;BME280;4010;42.698;23.124;2022-10-31T08:03:21;118349.16;;;-140.64;76.01
7930;BME280;4010;42.698;23.124;2022-10-31T08:05:48;118349.16;;;-140.64;72.90
7930;BME280;4010;42.698;23.124;2022-10-31T08:08:14;118349.16;;;-140.64;75.12
7930;BME280;4010;42.698;23.124;2022-10-31T08:10:42;118349.16;;;-140.64;73.63
7930;BME280;4010;42.698;23.124;2022-10-31T08:13:10;118349.16;;;-140.64;72.80
7930;BME280;4010;42.698;23.124;2022-10-31T08:15:37;118349.16;;;-140.64;71.44
7930;BME280;4010;42.698;23.124;2022-10-31T08:18:11;118349.16;;;-140.64;72.12
7930;BME280;4010;42.698;23.124;2022-10-31T08:20:38;118349.16;;;-140.64;72.06
7930;BME280;4010;42.698;23.124;2022-10-31T08:23:05;118349.16;;;-140.64;74.82
7930;BME280;4010;42.698;23.124;2022-10-31T08:25:33;118349.16;;;-140.64;70.40
7930;BME280;4010;42.698;23.124;2022-10-31T08:28:01;118349.16;;;-140.64;72.33
7930;BME280;4010;42.698;23.124;2022-10-31T08:30:29;118349.16;;;-140.64;71.98
7930;BME280;4010;42.698;23.124;2022-10-31T08:32:58;118349.16;;;-140.64;71.49
7930;BME280;4010;42.698;23.124;2022-10-31T08:35:26;118349.16;;;-140.64;68.54
7930;BME280;4010;42.698;23.124;2022-10-31T08:37:53;118349.16;;;-140.64;70.93
7930;BME280;4010;42.698;23.124;2022-10-31T08:40:20;118349.16;;;-140.64;69.90
7930;BME280;4010;42.698;23.124;2022-10-31T08:42:47;118349.16;;;-140.64;68.96
7930;BME280;4010;42.698;23.124;2022-10-31T08:45:14;118349.16;;;-140.64;67.31
7930;BME280;4010;42.698;23.124;2022-10-31T08:47:41;118349.16;;;-140.64;67.36
7930;BME280;4010;42.698;23.124;2022-10-31T08:50:08;118349.16;;;-140.64;67.14
7930;BME280;4010;42.698;23.124;2022-10-31T08:52:36;118349.16;;;-140.64;67.24
7930;BME280;4010;42.698;23.124;2022-10-31T08:55:03;118349.16;;;-140.64;69.60
7930;BME280;4010;42.698;23.124;2022-10-31T08:57:30;118349.16;;;-140.64;67.16
7930;BME280;4010;42.698;23.124;2022-10-31T08:59:57;118349.16;;;-140.64;68.04
7930;BME280;4010;42.698;23.124;2022-10-31T09:02:23;118349.16;;;-140.64;69.89
7930;BME280;4010;42.698;23.124;2022-10-31T09:04:50;118349.16;;;-140.64;68.30
7930;BME280;4010;42.698;23.124;2022-10-31T09:07:17;118349.16;;;-140.64;63.35
7930;BME280;4010;42.698;23.124;2022-10-31T09:09:45;118349.16;;;-140.64;64.42
7930;BME280;4010;42.698;23.124;2022-10-31T09:12:11;118349.16;;;-140.64;67.21
7930;BME280;4010;42.698;23.124;2022-10-31T09:14:38;118349.16;;;-140.64;64.08
7930;BME280;4010;42.698;23.124;2022-10-31T09:17:05;118349.16;;;-140.64;66.25
7930;BME280;4010;42.698;23.124;2022-10-31T09:19:32;118349.16;;;-140.64;63.02
7930;BME280;4010;42.698;23.124;2022-10-31T09:21:58;118349.16;;;-140.64;63.83
7930;BME280;4010;42.698;23.124;2022-10-31T09:24:25;118349.16;;;-140.64;62.09
7930;BME280;4010;42.698;23.124;2022-10-31T09:26:53;118349.16;;;-140.64;61.80
7930;BME280;4010;42.698;23.124;2022-10-31T09:29:20;118349.16;;;-140.64;60.77
7930;BME280;4010;42.698;23.124;2022-10-31T09:31:47;118349.16;;;-140.64;60.71
7930;BME280;4010;42.698;23.124;2022-10-31T09:34:13;118349.16;;;-140.64;61.55
7930;BME280;4010;42.698;23.124;2022-10-31T09:36:40;118349.16;;;-140.64;62.26
7930;BME280;4010;42.698;23.124;2022-10-31T09:39:08;118349.16;;;-140.64;59.52
7930;BME280;4010;42.698;23.124;2022-10-31T09:41:47;118349.16;;;-140.64;59.08
7930;BME280;4010;42.698;23.124;2022-10-31T09:44:27;118349.16;;;-140.64;59.30
7930;BME280;4010;42.698;23.124;2022-10-31T09:47:02;118349.16;;;-140.64;59.21
7930;BME280;4010;42.698;23.124;2022-10-31T09:49:39;118349.16;;;-140.64;59.98
7930;BME280;4010;42.698;23.124;2022-10-31T09:52:13;118349.16;;;-140.64;61.73
7930;BME280;4010;42.698;23.124;2022-10-31T09:54:45;118349.16;;;-140.64;62.69
7930;BME280;4010;42.698;23.124;2022-10-31T09:57:15;118349.16;;;-140.64;58.84
7930;BME280;4010;42.698;23.124;2022-10-31T09:59:46;118349.16;;;-140.64;61.45
7930;BME280;4010;42.698;23.124;2022-10-31T10:02:17;118349.16;;;-140.64;59.63
7930;BME280;4010;42.698;23.124;2022-10-31T10:04:49;118349.16;;;-140.64;59.91
7930;BME280;4010;42.698;23.124;2022-10-31T10:07:25;118349.16;;;-140.64;59.41
7930;BME280;4010;42.698;23.124;2022-10-31T10:09:55;118349.16;;;-140.64;59.23
7930;BME280;4010;42.698;23.124;2022-10-31T10:12:33;118349.16;;;-140.64;60.38
7930;BME280;4010;42.698;23.124;2022-10-31T10:15:26;118349.16;;;-140.64;60.94
7930;BME280;4010;42.698;23.124;2022-10-31T10:18:03;118349.16;;;-140.64;57.75
7930;BME280;4010;42.698;23.124;2022-10-31T10:20:35;118349.16;;;-140.64;59.70
7930;BME280;4010;42.698;23.124;2022-10-31T10:23:23;118349.16;;;-140.64;58.58
7930;BME280;4010;42.698;23.124;2022-10-31T10:26:02;118349.16;;;-140.64;58.35
7930;BME280;4010;42.698;23.124;2022-10-31T10:28:35;118349.16;;;-140.64;59.07
7930;BME280;4010;42.698;23.124;2022-10-31T10:31:08;118349.16;;;-140.64;58.82
7930;BME280;4010;42.698;23.124;2022-10-31T10:33:40;118349.16;;;-140.64;55.91
7930;BME280;4010;42.698;23.124;2022-10-31T10:36:13;118349.16;;;-140.64;56.64
7930;BME280;4010;42.698;23.124;2022-10-31T10:38:48;118349.16;;;-140.64;55.63
7930;BME280;4010;42.698;23.124;2022-10-31T10:41:17;118349.16;;;-140.64;55.51
7930;BME280;4010;42.698;23.124;2022-10-31T10:43:45;118349.16;;;-140.64;54.31
7930;BME280;4010;42.698;23.124;2022-10-31T10:46:21;118349.16;;;-140.64;55.10
7930;BME280;4010;42.698;23.124;2022-10-31T10:49:16;118349.16;;;-140.64;54.47
7930;BME280;4010;42.698;23.124;2022-10-31T10:51:46;118349.16;;;-140.64;55.15
7930;BME280;4010;42.698;23.124;2022-10-31T10:54:49;118349.16;;;-140.64;56.13
7930;BME280;4010;42.698;23.124;2022-10-31T10:57:36;118349.16;;;-140.64;54.89
7930;BME280;4010;42.698;23.124;2022-10-31T11:00:16;118349.16;;;-140.64;52.97
7930;BME280;4010;42.698;23.124;2022-10-31T11:02:45;118349.16;;;-140.64;52.23
7930;BME280;4010;42.698;23.124;2022-10-31T11:05:18;118349.16;;;-140.64;52.78
7930;BME280;4010;42.698;23.124;2022-10-31T11:07:46;118349.16;;;-140.64;52.30
7930;BME280;4010;42.698;23.124;2022-10-31T11:10:14;118349.16;;;-140.64;50.95
7930;BME280;4010;42.698;23.124;2022-10-31T11:12:43;118349.16;;;-140.64;50.89
7930;BME280;4010;42.698;23.124;2022-10-31T11:15:19;118349.16;;;-140.64;51.80
7930;BME280;4010;42.698;23.124;2022-10-31T11:17:50;118349.16;;;-140.64;51.01
7930;BME280;4010;42.698;23.124;2022-10-31T11:20:26;118349.16;;;-140.64;50.07
7930;BME280;4010;42.698;23.124;2022-10-31T11:23:10;118349.16;;;-140.64;50.22
7930;BME280;4010;42.698;23.124;2022-10-31T11:25:48;118349.16;;;-140.64;50.77
7930;BME280;4010;42.698;23.124;2022-10-31T11:28:16;118349.16;;;-140.64;49.67
7930;BME280;4010;42.698;23.124;2022-10-31T11:30:44;118349.16;;;-140.64;48.36
7930;BME280;4010;42.698;23.124;2022-10-31T11:33:18;118349.16;;;-140.64;48.42
7930;BME280;4010;42.698;23.124;2022-10-31T11:35:47;118349.16;;;-140.64;50.00
7930;BME280;4010;42.698;23.124;2022-10-31T11:38:19;118349.16;;;-140.64;49.53
7930;BME280;4010;42.698;23.124;2022-10-31T11:40:54;118349.16;;;-140.64;49.25
7930;BME280;4010;42.698;23.124;2022-10-31T11:43:22;118349.16;;;-140.64;49.14
7930;BME280;4010;42.698;23.124;2022-10-31T11:45:49;118349.16;;;-140.64;48.61
7930;BME280;4010;42.698;23.124;2022-10-31T11:48:20;118349.16;;;-140.64;48.10
7930;BME280;4010;42.698;23.124;2022-10-31T11:50:50;118349.16;;;-140.64;47.35
7930;BME280;4010;42.698;23.124;2022-10-31T11:53:19;118349.16;;;-140.64;47.38
7930;BME280;4010;42.698;23.124;2022-10-31T11:55:48;118349.16;;;-140.64;47.31
7930;BME280;4010;42.698;23.124;2022-10-31T11:58:26;118349.16;;;-140.64;46.98
7930;BME280;4010;42.698;23.124;2022-10-31T12:00:55;118349.16;;;-140.64;47.75
7930;BME280;4010;42.698;23.124;2022-10-31T12:03:43;118349.16;;;-140.64;47.42
7930;BME280;4010;42.698;23.124;2022-10-31T12:06:19;118349.16;;;-140.64;47.37
7930;BME280;4010;42.698;23.124;2022-10-31T12:08:47;118349.16;;;-140.64;48.02
7930;BME280;4010;42.698;23.124;2022-10-31T12:11:37;118349.16;;;-140.64;46.54
7930;BME280;4010;42.698;23.124;2022-10-31T12:14:16;118349.16;;;-140.64;46.76
7930;BME280;4010;42.698;23.124;2022-10-31T12:16:53;118349.16;;;-140.64;46.44
7930;BME280;4010;42.698;23.124;2022-10-31T12:19:32;118349.16;;;-140.64;46.54
7930;BME280;4010;42.698;23.124;2022-10-31T12:22:11;118349.16;;;-140.64;47.39
7930;BME280;4010;42.698;23.124;2022-10-31T12:24:52;118349.16;;;-140.64;46.32
7930;BME280;4010;42.698;23.124;2022-10-31T12:27:34;118349.16;;;-140.64;45.76
7930;BME280;4010;42.698;23.124;2022-10-31T12:30:15;118349.16;;;-140.64;45.99
7930;BME280;4010;42.698;23.124;2022-10-31T12:32:55;118349.16;;;-140.64;45.82
7930;BME280;4010;42.698;23.124;2022-10-31T12:35:33;118349.16;;;-140.64;46.34
7930;BME280;4010;42.698;23.124;2022-10-31T12:41:19;118349.16;;;-140.64;45.25
7930;BME280;4010;42.698;23.124;2022-10-31T12:43:54;118349.16;;;-140.64;45.90
7930;BME280;4010;42.698;23.124;2022-10-31T12:46:29;118349.16;;;-140.64;46.01
7930;BME280;4010;42.698;23.124;2022-10-31T12:49:16;118349.16;;;-140.64;45.78
7930;BME280;4010;42.698;23.124;2022-10-31T12:51:58;118349.16;;;-140.64;45.51
7930;BME280;4010;42.698;23.124;2022-10-31T12:54:44;118349.16;;;-140.64;45.55